Terminal Aerodrome Forecast
Issued by NWS Charleston, WV

Current Version | Previous Version | Text Only | Print | Product List | Glossary Off
Versions: 1 2 3 4 5 6 7 8 9 10 11 12 13 14 15 16 17 18 19 20 21 22 23 24 25

000
FTUS41 KRLX 281143
TAFEKN
TAF
KEKN 281143Z 2812/2912 00000KT 4SM BR SCT035
     FM281300 VRB02KT P6SM FEW040
     FM281700 23005KT P6SM FEW200
     FM290900 21005KT P6SM BKN060=

USA.gov is the U.S. government's official web portal to all federal, state and local government web resources and services.